2NY4 weather

Byron Airpark
Byron, New York, United States

Public forecast

Using degrees Fahrenheit for public forecast. Weather courtesy of forecast.io.

Closest aviation weather report (METAR) to Byron Airpark

Closest report is Greater Rochester International Airport, 16.8 nm (31.1 km) E. Retrieved 2020/07/16 02:54 UTC (43 minutes ago):

KROC 160254Z 12007KT 10SM CLR 24/18 A3009 RMK AO2 SLP186 T02390178 55001

Closest aviation forecast (TAF) to Byron Airpark

Closest forecast is Greater Rochester International Airport, 16.8 nm (31.1 km) E. Retrieved 2020-07-16 00:30 UTC (3 hours ago):

TAF KROC 152327Z 1600/1624 10006KT P6SM BKN250 FM160400 14006KT P6SM OVC250 FM160900 18008KT P6SM SCT100 OVC250 FM161400 18014G20KT P6SM BKN100 FM161900 18012G20KT P6SM VCTS BKN040CB